sensor_id;sensor_type;location;lat;lon;timestamp;P1;durP1;ratioP1;P2;durP2;ratioP2
50161;SDS011;36061;48.116;11.612;2024-03-06T00:01:02;14.07;;;8.97;;
50161;SDS011;36061;48.116;11.612;2024-03-06T00:03:29;14.77;;;8.73;;
50161;SDS011;36061;48.116;11.612;2024-03-06T00:05:57;13.50;;;9.20;;
50161;SDS011;36061;48.116;11.612;2024-03-06T00:08:25;12.50;;;7.83;;
50161;SDS011;36061;48.116;11.612;2024-03-06T00:10:54;12.60;;;7.90;;
50161;SDS011;36061;48.116;11.612;2024-03-06T00:13:22;14.33;;;8.67;;
50161;SDS011;36061;48.116;11.612;2024-03-06T00:15:49;13.27;;;9.30;;
50161;SDS011;36061;48.116;11.612;2024-03-06T00:18:17;13.13;;;8.23;;
50161;SDS011;36061;48.116;11.612;2024-03-06T00:20:53;11.00;;;8.17;;
50161;SDS011;36061;48.116;11.612;2024-03-06T00:23:20;11.90;;;7.83;;
50161;SDS011;36061;48.116;11.612;2024-03-06T00:25:48;13.77;;;8.80;;
50161;SDS011;36061;48.116;11.612;2024-03-06T00:28:16;12.43;;;8.30;;
50161;SDS011;36061;48.116;11.612;2024-03-06T00:30:44;13.27;;;8.83;;
50161;SDS011;36061;48.116;11.612;2024-03-06T00:33:11;13.10;;;8.53;;
50161;SDS011;36061;48.116;11.612;2024-03-06T00:35:39;13.13;;;8.47;;
50161;SDS011;36061;48.116;11.612;2024-03-06T00:38:07;12.50;;;8.40;;
50161;SDS011;36061;48.116;11.612;2024-03-06T00:40:34;12.07;;;8.37;;
50161;SDS011;36061;48.116;11.612;2024-03-06T00:43:02;13.50;;;8.90;;
50161;SDS011;36061;48.116;11.612;2024-03-06T00:45:30;13.37;;;8.67;;
50161;SDS011;36061;48.116;11.612;2024-03-06T00:47:58;11.83;;;8.27;;
50161;SDS011;36061;48.116;11.612;2024-03-06T00:50:25;12.20;;;8.57;;
50161;SDS011;36061;48.116;11.612;2024-03-06T00:52:52;11.17;;;8.07;;
50161;SDS011;36061;48.116;11.612;2024-03-06T00:55:20;12.87;;;8.47;;
50161;SDS011;36061;48.116;11.612;2024-03-06T00:57:47;11.47;;;7.60;;
50161;SDS011;36061;48.116;11.612;2024-03-06T01:00:15;13.53;;;7.30;;
50161;SDS011;36061;48.116;11.612;2024-03-06T01:02:44;11.07;;;7.47;;
50161;SDS011;36061;48.116;11.612;2024-03-06T01:05:12;11.03;;;8.00;;
50161;SDS011;36061;48.116;11.612;2024-03-06T01:07:39;12.80;;;7.77;;
50161;SDS011;36061;48.116;11.612;2024-03-06T01:10:07;13.73;;;8.90;;
50161;SDS011;36061;48.116;11.612;2024-03-06T01:12:36;11.27;;;7.73;;
50161;SDS011;36061;48.116;11.612;2024-03-06T01:15:03;9.17;;;6.23;;
50161;SDS011;36061;48.116;11.612;2024-03-06T01:17:33;12.20;;;8.37;;
50161;SDS011;36061;48.116;11.612;2024-03-06T01:20:02;10.73;;;8.03;;
50161;SDS011;36061;48.116;11.612;2024-03-06T01:22:32;10.57;;;7.53;;
50161;SDS011;36061;48.116;11.612;2024-03-06T01:24:59;11.03;;;7.90;;
50161;SDS011;36061;48.116;11.612;2024-03-06T01:27:27;11.53;;;7.40;;
50161;SDS011;36061;48.116;11.612;2024-03-06T01:29:54;15.07;;;8.27;;
50161;SDS011;36061;48.116;11.612;2024-03-06T01:32:22;11.77;;;7.93;;
50161;SDS011;36061;48.116;11.612;2024-03-06T01:34:49;11.17;;;7.87;;
50161;SDS011;36061;48.116;11.612;2024-03-06T01:37:18;12.07;;;7.93;;
50161;SDS011;36061;48.116;11.612;2024-03-06T01:39:45;13.60;;;8.80;;
50161;SDS011;36061;48.116;11.612;2024-03-06T01:42:13;12.93;;;8.70;;
50161;SDS011;36061;48.116;11.612;2024-03-06T01:44:40;16.30;;;8.83;;
50161;SDS011;36061;48.116;11.612;2024-03-06T01:47:07;12.60;;;8.50;;
50161;SDS011;36061;48.116;11.612;2024-03-06T01:49:35;14.03;;;8.97;;
50161;SDS011;36061;48.116;11.612;2024-03-06T01:52:02;12.73;;;9.20;;
50161;SDS011;36061;48.116;11.612;2024-03-06T01:54:31;15.07;;;8.97;;
50161;SDS011;36061;48.116;11.612;2024-03-06T01:56:59;15.00;;;9.10;;
50161;SDS011;36061;48.116;11.612;2024-03-06T01:59:29;18.67;;;10.90;;
50161;SDS011;36061;48.116;11.612;2024-03-06T02:01:57;14.57;;;9.70;;
50161;SDS011;36061;48.116;11.612;2024-03-06T02:04:26;14.20;;;9.33;;
50161;SDS011;36061;48.116;11.612;2024-03-06T02:06:54;16.33;;;9.90;;
50161;SDS011;36061;48.116;11.612;2024-03-06T02:09:22;13.77;;;9.83;;
50161;SDS011;36061;48.116;11.612;2024-03-06T02:11:51;15.37;;;10.20;;
50161;SDS011;36061;48.116;11.612;2024-03-06T02:14:19;16.53;;;9.60;;
50161;SDS011;36061;48.116;11.612;2024-03-06T02:16:46;18.87;;;10.27;;
50161;SDS011;36061;48.116;11.612;2024-03-06T02:19:16;15.70;;;10.07;;
50161;SDS011;36061;48.116;11.612;2024-03-06T02:21:44;16.10;;;9.27;;
50161;SDS011;36061;48.116;11.612;2024-03-06T02:24:12;17.53;;;10.17;;
50161;SDS011;36061;48.116;11.612;2024-03-06T02:26:39;17.97;;;10.20;;
50161;SDS011;36061;48.116;11.612;2024-03-06T02:29:08;16.23;;;10.00;;
50161;SDS011;36061;48.116;11.612;2024-03-06T02:31:35;15.47;;;9.43;;
50161;SDS011;36061;48.116;11.612;2024-03-06T02:34:04;14.07;;;8.57;;
50161;SDS011;36061;48.116;11.612;2024-03-06T02:36:31;16.73;;;9.87;;
50161;SDS011;36061;48.116;11.612;2024-03-06T02:39:00;15.27;;;9.23;;
50161;SDS011;36061;48.116;11.612;2024-03-06T02:41:34;15.97;;;10.13;;
50161;SDS011;36061;48.116;11.612;2024-03-06T02:44:02;19.40;;;10.43;;
50161;SDS011;36061;48.116;11.612;2024-03-06T02:46:30;17.97;;;9.90;;
50161;SDS011;36061;48.116;11.612;2024-03-06T02:48:57;5.07;;;3.70;;
50161;SDS011;36061;48.116;11.612;2024-03-06T02:51:25;5.90;;;2.97;;
50161;SDS011;36061;48.116;11.612;2024-03-06T02:53:52;3.17;;;2.57;;
50161;SDS011;36061;48.116;11.612;2024-03-06T02:56:21;3.43;;;2.10;;
50161;SDS011;36061;48.116;11.612;2024-03-06T02:58:48;3.10;;;2.00;;
50161;SDS011;36061;48.116;11.612;2024-03-06T03:01:16;2.87;;;2.23;;
50161;SDS011;36061;48.116;11.612;2024-03-06T03:03:43;3.43;;;2.40;;
50161;SDS011;36061;48.116;11.612;2024-03-06T03:06:12;2.27;;;1.87;;
50161;SDS011;36061;48.116;11.612;2024-03-06T03:08:39;1.80;;;1.60;;
50161;SDS011;36061;48.116;11.612;2024-03-06T03:11:07;2.53;;;1.50;;
50161;SDS011;36061;48.116;11.612;2024-03-06T03:13:36;2.00;;;1.80;;
50161;SDS011;36061;48.116;11.612;2024-03-06T03:16:05;1.60;;;1.50;;
50161;SDS011;36061;48.116;11.612;2024-03-06T03:18:32;3.07;;;1.90;;
50161;SDS011;36061;48.116;11.612;2024-03-06T03:21:00;1.93;;;1.43;;
50161;SDS011;36061;48.116;11.612;2024-03-06T03:23:28;1.83;;;1.60;;
50161;SDS011;36061;48.116;11.612;2024-03-06T03:25:55;1.63;;;1.43;;
50161;SDS011;36061;48.116;11.612;2024-03-06T03:28:22;1.43;;;1.30;;
50161;SDS011;36061;48.116;11.612;2024-03-06T03:30:51;1.83;;;1.40;;
50161;SDS011;36061;48.116;11.612;2024-03-06T03:33:18;2.43;;;1.70;;
50161;SDS011;36061;48.116;11.612;2024-03-06T03:35:46;1.60;;;1.50;;
50161;SDS011;36061;48.116;11.612;2024-03-06T03:38:13;2.00;;;1.40;;
50161;SDS011;36061;48.116;11.612;2024-03-06T03:40:40;1.90;;;1.30;;
50161;SDS011;36061;48.116;11.612;2024-03-06T03:43:08;1.70;;;1.30;;
50161;SDS011;36061;48.116;11.612;2024-03-06T03:45:35;1.40;;;1.17;;
50161;SDS011;36061;48.116;11.612;2024-03-06T03:48:04;1.33;;;1.20;;
50161;SDS011;36061;48.116;11.612;2024-03-06T03:50:32;1.37;;;1.27;;
50161;SDS011;36061;48.116;11.612;2024-03-06T03:52:59;2.43;;;1.37;;
50161;SDS011;36061;48.116;11.612;2024-03-06T03:55:27;1.40;;;1.20;;
50161;SDS011;36061;48.116;11.612;2024-03-06T03:57:54;2.20;;;1.63;;
50161;SDS011;36061;48.116;11.612;2024-03-06T04:00:22;1.83;;;1.43;;
50161;SDS011;36061;48.116;11.612;2024-03-06T04:02:49;2.87;;;1.43;;
50161;SDS011;36061;48.116;11.612;2024-03-06T04:05:18;2.93;;;1.60;;
50161;SDS011;36061;48.116;11.612;2024-03-06T04:07:46;1.70;;;1.57;;
50161;SDS011;36061;48.116;11.612;2024-03-06T04:10:14;1.63;;;1.20;;
50161;SDS011;36061;48.116;11.612;2024-03-06T04:12:41;1.27;;;1.10;;
50161;SDS011;36061;48.116;11.612;2024-03-06T04:15:09;1.50;;;1.40;;
50161;SDS011;36061;48.116;11.612;2024-03-06T04:17:36;1.40;;;1.17;;
50161;SDS011;36061;48.116;11.612;2024-03-06T04:20:04;2.07;;;1.50;;
50161;SDS011;36061;48.116;11.612;2024-03-06T04:22:34;1.57;;;1.30;;
50161;SDS011;36061;48.116;11.612;2024-03-06T04:25:02;1.70;;;1.60;;
50161;SDS011;36061;48.116;11.612;2024-03-06T04:27:30;1.20;;;1.10;;
50161;SDS011;36061;48.116;11.612;2024-03-06T04:29:58;1.87;;;1.70;;
50161;SDS011;36061;48.116;11.612;2024-03-06T04:32:25;1.47;;;1.37;;
50161;SDS011;36061;48.116;11.612;2024-03-06T04:34:53;2.40;;;1.40;;
50161;SDS011;36061;48.116;11.612;2024-03-06T04:37:21;1.50;;;1.40;;
50161;SDS011;36061;48.116;11.612;2024-03-06T04:39:50;1.67;;;1.33;;
50161;SDS011;36061;48.116;11.612;2024-03-06T04:42:18;1.40;;;1.30;;
50161;SDS011;36061;48.116;11.612;2024-03-06T04:44:45;1.37;;;1.20;;
50161;SDS011;36061;48.116;11.612;2024-03-06T04:47:13;1.57;;;1.43;;
50161;SDS011;36061;48.116;11.612;2024-03-06T04:49:40;1.13;;;1.00;;
50161;SDS011;36061;48.116;11.612;2024-03-06T04:52:08;1.50;;;1.40;;
50161;SDS011;36061;48.116;11.612;2024-03-06T04:54:35;1.60;;;1.40;;
50161;SDS011;36061;48.116;11.612;2024-03-06T04:57:04;1.70;;;1.60;;
50161;SDS011;36061;48.116;11.612;2024-03-06T04:59:32;2.00;;;1.37;;
50161;SDS011;36061;48.116;11.612;2024-03-06T05:01:59;1.30;;;1.20;;
50161;SDS011;36061;48.116;11.612;2024-03-06T05:04:28;2.07;;;1.70;;
50161;SDS011;36061;48.116;11.612;2024-03-06T05:06:56;2.00;;;1.10;;
50161;SDS011;36061;48.116;11.612;2024-03-06T05:09:24;1.70;;;1.20;;
50161;SDS011;36061;48.116;11.612;2024-03-06T05:11:51;1.77;;;1.30;;
50161;SDS011;36061;48.116;11.612;2024-03-06T05:14:20;1.83;;;1.50;;
50161;SDS011;36061;48.116;11.612;2024-03-06T05:16:47;2.33;;;1.30;;
50161;SDS011;36061;48.116;11.612;2024-03-06T05:19:15;1.83;;;1.57;;
50161;SDS011;36061;48.116;11.612;2024-03-06T05:21:42;1.80;;;1.50;;
50161;SDS011;36061;48.116;11.612;2024-03-06T05:24:09;2.17;;;1.60;;
50161;SDS011;36061;48.116;11.612;2024-03-06T05:26:37;3.60;;;1.17;;
50161;SDS011;36061;48.116;11.612;2024-03-06T05:29:04;2.40;;;1.60;;
50161;SDS011;36061;48.116;11.612;2024-03-06T05:31:33;2.57;;;1.27;;
50161;SDS011;36061;48.116;11.612;2024-03-06T05:34:00;1.93;;;1.63;;
50161;SDS011;36061;48.116;11.612;2024-03-06T05:36:30;2.17;;;1.67;;
50161;SDS011;36061;48.116;11.612;2024-03-06T05:38:58;2.20;;;1.47;;
50161;SDS011;36061;48.116;11.612;2024-03-06T05:41:25;1.80;;;1.33;;
50161;SDS011;36061;48.116;11.612;2024-03-06T05:43:53;2.30;;;1.47;;
50161;SDS011;36061;48.116;11.612;2024-03-06T05:46:22;1.77;;;1.40;;
50161;SDS011;36061;48.116;11.612;2024-03-06T05:48:51;1.83;;;1.70;;
50161;SDS011;36061;48.116;11.612;2024-03-06T05:51:18;1.33;;;1.23;;
50161;SDS011;36061;48.116;11.612;2024-03-06T05:53:46;1.53;;;1.30;;
50161;SDS011;36061;48.116;11.612;2024-03-06T05:56:13;1.63;;;1.30;;
50161;SDS011;36061;48.116;11.612;2024-03-06T05:58:41;2.30;;;1.50;;
50161;SDS011;36061;48.116;11.612;2024-03-06T06:01:11;1.77;;;1.57;;
50161;SDS011;36061;48.116;11.612;2024-03-06T06:03:39;1.40;;;1.30;;
50161;SDS011;36061;48.116;11.612;2024-03-06T06:06:08;4.87;;;1.83;;
50161;SDS011;36061;48.116;11.612;2024-03-06T06:08:35;1.30;;;1.10;;
50161;SDS011;36061;48.116;11.612;2024-03-06T06:11:02;1.30;;;1.20;;
50161;SDS011;36061;48.116;11.612;2024-03-06T06:13:30;3.07;;;1.60;;
50161;SDS011;36061;48.116;11.612;2024-03-06T06:15:57;2.77;;;1.47;;
50161;SDS011;36061;48.116;11.612;2024-03-06T06:18:27;1.97;;;1.70;;
50161;SDS011;36061;48.116;11.612;2024-03-06T06:20:54;2.40;;;1.50;;
50161;SDS011;36061;48.116;11.612;2024-03-06T06:23:23;1.97;;;1.73;;
50161;SDS011;36061;48.116;11.612;2024-03-06T06:25:50;1.57;;;1.47;;
50161;SDS011;36061;48.116;11.612;2024-03-06T06:28:18;2.13;;;1.40;;
50161;SDS011;36061;48.116;11.612;2024-03-06T06:30:45;2.43;;;1.80;;
50161;SDS011;36061;48.116;11.612;2024-03-06T06:33:12;4.17;;;2.33;;
50161;SDS011;36061;48.116;11.612;2024-03-06T06:35:40;3.23;;;2.13;;
50161;SDS011;36061;48.116;11.612;2024-03-06T06:38:07;2.07;;;1.60;;
50161;SDS011;36061;48.116;11.612;2024-03-06T06:40:36;3.33;;;1.53;;
50161;SDS011;36061;48.116;11.612;2024-03-06T06:43:03;2.20;;;1.80;;
50161;SDS011;36061;48.116;11.612;2024-03-06T06:45:31;3.23;;;1.83;;
50161;SDS011;36061;48.116;11.612;2024-03-06T06:47:58;2.03;;;1.70;;
50161;SDS011;36061;48.116;11.612;2024-03-06T06:50:25;1.77;;;1.40;;
50161;SDS011;36061;48.116;11.612;2024-03-06T06:52:53;1.77;;;1.47;;
50161;SDS011;36061;48.116;11.612;2024-03-06T06:55:21;2.10;;;1.50;;
50161;SDS011;36061;48.116;11.612;2024-03-06T06:57:51;3.67;;;2.07;;
50161;SDS011;36061;48.116;11.612;2024-03-06T07:00:19;3.07;;;1.23;;
50161;SDS011;36061;48.116;11.612;2024-03-06T07:02:48;3.33;;;1.60;;
50161;SDS011;36061;48.116;11.612;2024-03-06T07:05:16;1.40;;;1.30;;
50161;SDS011;36061;48.116;11.612;2024-03-06T07:07:43;2.00;;;1.77;;
50161;SDS011;36061;48.116;11.612;2024-03-06T07:10:11;2.10;;;1.57;;
50161;SDS011;36061;48.116;11.612;2024-03-06T07:12:39;2.07;;;1.60;;
50161;SDS011;36061;48.116;11.612;2024-03-06T07:15:08;2.33;;;1.60;;
50161;SDS011;36061;48.116;11.612;2024-03-06T07:17:35;2.13;;;1.43;;
50161;SDS011;36061;48.116;11.612;2024-03-06T07:20:04;4.80;;;2.27;;
50161;SDS011;36061;48.116;11.612;2024-03-06T07:22:34;1.83;;;1.63;;
50161;SDS011;36061;48.116;11.612;2024-03-06T07:25:01;1.57;;;1.20;;
50161;SDS011;36061;48.116;11.612;2024-03-06T07:27:29;4.47;;;1.63;;
50161;SDS011;36061;48.116;11.612;2024-03-06T07:29:56;2.10;;;1.50;;
50161;SDS011;36061;48.116;11.612;2024-03-06T07:32:25;3.73;;;1.40;;
50161;SDS011;36061;48.116;11.612;2024-03-06T07:34:52;2.33;;;1.30;;
50161;SDS011;36061;48.116;11.612;2024-03-06T07:37:19;2.30;;;1.83;;
50161;SDS011;36061;48.116;11.612;2024-03-06T07:39:47;2.93;;;1.47;;
50161;SDS011;36061;48.116;11.612;2024-03-06T07:42:14;1.47;;;1.37;;
50161;SDS011;36061;48.116;11.612;2024-03-06T07:44:43;1.97;;;1.73;;
50161;SDS011;36061;48.116;11.612;2024-03-06T07:47:10;2.70;;;2.03;;
50161;SDS011;36061;48.116;11.612;2024-03-06T07:49:41;3.47;;;2.00;;
50161;SDS011;36061;48.116;11.612;2024-03-06T07:52:10;1.57;;;1.47;;
50161;SDS011;36061;48.116;11.612;2024-03-06T07:54:37;1.20;;;1.10;;
50161;SDS011;36061;48.116;11.612;2024-03-06T07:57:05;1.93;;;1.30;;
50161;SDS011;36061;48.116;11.612;2024-03-06T07:59:32;1.83;;;1.37;;
50161;SDS011;36061;48.116;11.612;2024-03-06T08:02:00;1.97;;;1.47;;
50161;SDS011;36061;48.116;11.612;2024-03-06T08:04:27;2.47;;;1.43;;
50161;SDS011;36061;48.116;11.612;2024-03-06T08:06:56;2.70;;;1.53;;
50161;SDS011;36061;48.116;11.612;2024-03-06T08:09:24;3.33;;;1.53;;
50161;SDS011;36061;48.116;11.612;2024-03-06T08:11:53;3.43;;;1.40;;
50161;SDS011;36061;48.116;11.612;2024-03-06T08:14:21;2.77;;;1.90;;
50161;SDS011;36061;48.116;11.612;2024-03-06T08:16:49;3.90;;;1.97;;
50161;SDS011;36061;48.116;11.612;2024-03-06T08:19:16;4.33;;;1.53;;
50161;SDS011;36061;48.116;11.612;2024-03-06T08:21:43;2.00;;;1.77;;
50161;SDS011;36061;48.116;11.612;2024-03-06T08:24:13;3.10;;;1.30;;
50161;SDS011;36061;48.116;11.612;2024-03-06T08:26:42;2.07;;;1.50;;
50161;SDS011;36061;48.116;11.612;2024-03-06T08:29:10;1.90;;;1.80;;
50161;SDS011;36061;48.116;11.612;2024-03-06T08:31:37;3.63;;;2.00;;
50161;SDS011;36061;48.116;11.612;2024-03-06T08:34:04;2.07;;;1.70;;
50161;SDS011;36061;48.116;11.612;2024-03-06T08:36:32;1.67;;;1.53;;
50161;SDS011;36061;48.116;11.612;2024-03-06T08:38:59;4.50;;;2.00;;
50161;SDS011;36061;48.116;11.612;2024-03-06T08:41:28;2.07;;;1.67;;
50161;SDS011;36061;48.116;11.612;2024-03-06T08:43:55;2.83;;;1.60;;
50161;SDS011;36061;48.116;11.612;2024-03-06T08:46:21;2.00;;;1.40;;
50161;SDS011;36061;48.116;11.612;2024-03-06T08:48:49;1.60;;;1.50;;
50161;SDS011;36061;48.116;11.612;2024-03-06T08:51:17;4.03;;;1.60;;
50161;SDS011;36061;48.116;11.612;2024-03-06T08:53:44;2.17;;;1.60;;
50161;SDS011;36061;48.116;11.612;2024-03-06T08:56:13;2.27;;;1.40;;
50161;SDS011;36061;48.116;11.612;2024-03-06T08:58:42;1.50;;;1.37;;
50161;SDS011;36061;48.116;11.612;2024-03-06T09:01:09;2.07;;;1.37;;
50161;SDS011;36061;48.116;11.612;2024-03-06T09:03:40;2.53;;;1.57;;
50161;SDS011;36061;48.116;11.612;2024-03-06T09:06:08;1.80;;;1.20;;
50161;SDS011;36061;48.116;11.612;2024-03-06T09:08:36;1.47;;;1.13;;
50161;SDS011;36061;48.116;11.612;2024-03-06T09:11:03;1.67;;;1.37;;
50161;SDS011;36061;48.116;11.612;2024-03-06T09:13:30;2.83;;;1.50;;
50161;SDS011;36061;48.116;11.612;2024-03-06T09:15:59;1.90;;;1.50;;
50161;SDS011;36061;48.116;11.612;2024-03-06T09:18:27;3.83;;;1.20;;
50161;SDS011;36061;48.116;11.612;2024-03-06T09:20:54;2.13;;;1.80;;
50161;SDS011;36061;48.116;11.612;2024-03-06T09:23:22;1.57;;;1.40;;
50161;SDS011;36061;48.116;11.612;2024-03-06T09:25:49;2.27;;;1.47;;
50161;SDS011;36061;48.116;11.612;2024-03-06T09:28:16;1.53;;;1.40;;
50161;SDS011;36061;48.116;11.612;2024-03-06T09:30:44;2.80;;;1.33;;
50161;SDS011;36061;48.116;11.612;2024-03-06T09:33:12;2.10;;;1.43;;
50161;SDS011;36061;48.116;11.612;2024-03-06T09:35:40;2.67;;;1.60;;
50161;SDS011;36061;48.116;11.612;2024-03-06T09:38:10;3.77;;;2.03;;
50161;SDS011;36061;48.116;11.612;2024-03-06T09:40:38;2.47;;;2.10;;
50161;SDS011;36061;48.116;11.612;2024-03-06T09:43:07;1.97;;;1.50;;
50161;SDS011;36061;48.116;11.612;2024-03-06T09:45:35;5.03;;;2.17;;
50161;SDS011;36061;48.116;11.612;2024-03-06T09:48:03;4.43;;;1.80;;
50161;SDS011;36061;48.116;11.612;2024-03-06T09:50:33;2.83;;;1.70;;
50161;SDS011;36061;48.116;11.612;2024-03-06T09:53:06;2.10;;;1.20;;
50161;SDS011;36061;48.116;11.612;2024-03-06T09:55:36;1.87;;;1.47;;
50161;SDS011;36061;48.116;11.612;2024-03-06T09:58:05;2.33;;;1.93;;
50161;SDS011;36061;48.116;11.612;2024-03-06T10:00:34;5.50;;;2.83;;
50161;SDS011;36061;48.116;11.612;2024-03-06T10:03:02;2.37;;;1.80;;
50161;SDS011;36061;48.116;11.612;2024-03-06T10:05:31;3.73;;;1.80;;
50161;SDS011;36061;48.116;11.612;2024-03-06T10:08:01;1.50;;;1.40;;
50161;SDS011;36061;48.116;11.612;2024-03-06T10:10:29;3.30;;;1.53;;
50161;SDS011;36061;48.116;11.612;2024-03-06T10:12:57;1.70;;;1.13;;
50161;SDS011;36061;48.116;11.612;2024-03-06T10:15:25;1.30;;;1.13;;
50161;SDS011;36061;48.116;11.612;2024-03-06T10:20:38;1.60;;;1.30;;
50161;SDS011;36061;48.116;11.612;2024-03-06T10:23:07;1.70;;;1.47;;
50161;SDS011;36061;48.116;11.612;2024-03-06T10:25:34;4.27;;;1.70;;
50161;SDS011;36061;48.116;11.612;2024-03-06T10:28:05;1.80;;;1.40;;
50161;SDS011;36061;48.116;11.612;2024-03-06T10:30:33;2.83;;;1.60;;
50161;SDS011;36061;48.116;11.612;2024-03-06T10:33:02;1.97;;;1.70;;
50161;SDS011;36061;48.116;11.612;2024-03-06T10:35:31;2.23;;;1.90;;
50161;SDS011;36061;48.116;11.612;2024-03-06T10:37:59;2.37;;;1.60;;
50161;SDS011;36061;48.116;11.612;2024-03-06T10:40:29;2.63;;;1.63;;
50161;SDS011;36061;48.116;11.612;2024-03-06T10:42:58;2.07;;;1.60;;
50161;SDS011;36061;48.116;11.612;2024-03-06T10:45:32;3.87;;;1.80;;
50161;SDS011;36061;48.116;11.612;2024-03-06T10:48:07;2.10;;;1.73;;
50161;SDS011;36061;48.116;11.612;2024-03-06T10:50:37;1.67;;;1.53;;
50161;SDS011;36061;48.116;11.612;2024-03-06T10:53:07;2.37;;;1.87;;
50161;SDS011;36061;48.116;11.612;2024-03-06T10:55:38;2.00;;;1.70;;
50161;SDS011;36061;48.116;11.612;2024-03-06T10:58:06;1.87;;;1.73;;
50161;SDS011;36061;48.116;11.612;2024-03-06T11:00:35;2.20;;;2.00;;
50161;SDS011;36061;48.116;11.612;2024-03-06T11:03:04;2.73;;;1.90;;
50161;SDS011;36061;48.116;11.612;2024-03-06T11:05:35;10.93;;;7.20;;
50161;SDS011;36061;48.116;11.612;2024-03-06T11:08:04;5.63;;;2.87;;
50161;SDS011;36061;48.116;11.612;2024-03-06T11:10:34;2.37;;;1.83;;
50161;SDS011;36061;48.116;11.612;2024-03-06T11:13:07;3.80;;;2.47;;
50161;SDS011;36061;48.116;11.612;2024-03-06T11:15:47;18.37;;;11.80;;
50161;SDS011;36061;48.116;11.612;2024-03-06T11:21:28;4.53;;;3.33;;
50161;SDS011;36061;48.116;11.612;2024-03-06T11:24:15;9.03;;;4.40;;
50161;SDS011;36061;48.116;11.612;2024-03-06T11:26:48;6.87;;;4.93;;
50161;SDS011;36061;48.116;11.612;2024-03-06T11:29:19;7.20;;;4.70;;
50161;SDS011;36061;48.116;11.612;2024-03-06T11:32:03;4.13;;;2.63;;
50161;SDS011;36061;48.116;11.612;2024-03-06T11:34:33;3.63;;;2.70;;
50161;SDS011;36061;48.116;11.612;2024-03-06T11:37:04;3.27;;;2.23;;
50161;SDS011;36061;48.116;11.612;2024-03-06T11:39:35;4.57;;;3.10;;
50161;SDS011;36061;48.116;11.612;2024-03-06T11:42:03;6.07;;;4.07;;
50161;SDS011;36061;48.116;11.612;2024-03-06T11:44:35;33.97;;;19.40;;
50161;SDS011;36061;48.116;11.612;2024-03-06T11:47:03;3.77;;;2.87;;
50161;SDS011;36061;48.116;11.612;2024-03-06T11:49:34;4.17;;;2.97;;
50161;SDS011;36061;48.116;11.612;2024-03-06T11:52:03;4.63;;;2.93;;
50161;SDS011;36061;48.116;11.612;2024-03-06T11:54:33;4.87;;;3.53;;
50161;SDS011;36061;48.116;11.612;2024-03-06T11:57:01;3.87;;;2.40;;
50161;SDS011;36061;48.116;11.612;2024-03-06T11:59:30;3.90;;;2.80;;
50161;SDS011;36061;48.116;11.612;2024-03-06T12:02:00;4.10;;;2.33;;
50161;SDS011;36061;48.116;11.612;2024-03-06T12:04:30;4.20;;;3.10;;
50161;SDS011;36061;48.116;11.612;2024-03-06T12:06:58;4.57;;;3.03;;
50161;SDS011;36061;48.116;11.612;2024-03-06T12:09:30;6.30;;;3.43;;
50161;SDS011;36061;48.116;11.612;2024-03-06T12:11:58;3.97;;;2.77;;
50161;SDS011;36061;48.116;11.612;2024-03-06T12:14:26;3.40;;;2.47;;
50161;SDS011;36061;48.116;11.612;2024-03-06T12:16:56;4.63;;;3.03;;
50161;SDS011;36061;48.116;11.612;2024-03-06T12:19:26;5.73;;;2.80;;
50161;SDS011;36061;48.116;11.612;2024-03-06T12:21:55;6.43;;;3.10;;
50161;SDS011;36061;48.116;11.612;2024-03-06T12:24:25;3.57;;;2.87;;
50161;SDS011;36061;48.116;11.612;2024-03-06T12:26:59;3.80;;;3.27;;
50161;SDS011;36061;48.116;11.612;2024-03-06T12:29:27;3.00;;;2.70;;
50161;SDS011;36061;48.116;11.612;2024-03-06T12:31:55;3.47;;;2.70;;
50161;SDS011;36061;48.116;11.612;2024-03-06T12:34:23;3.70;;;2.97;;
50161;SDS011;36061;48.116;11.612;2024-03-06T12:36:52;4.90;;;2.37;;
50161;SDS011;36061;48.116;11.612;2024-03-06T12:39:20;2.93;;;2.63;;
50161;SDS011;36061;48.116;11.612;2024-03-06T12:41:48;5.00;;;2.43;;
50161;SDS011;36061;48.116;11.612;2024-03-06T12:44:16;3.60;;;2.53;;
50161;SDS011;36061;48.116;11.612;2024-03-06T12:46:43;3.60;;;2.67;;
50161;SDS011;36061;48.116;11.612;2024-03-06T12:49:11;6.27;;;3.03;;
50161;SDS011;36061;48.116;11.612;2024-03-06T12:51:38;5.53;;;2.87;;
50161;SDS011;36061;48.116;11.612;2024-03-06T12:54:07;4.07;;;2.70;;
50161;SDS011;36061;48.116;11.612;2024-03-06T12:56:35;3.20;;;2.73;;
50161;SDS011;36061;48.116;11.612;2024-03-06T12:59:02;6.10;;;2.27;;
50161;SDS011;36061;48.116;11.612;2024-03-06T13:01:30;3.43;;;2.87;;
50161;SDS011;36061;48.116;11.612;2024-03-06T13:04:00;2.40;;;2.07;;
50161;SDS011;36061;48.116;11.612;2024-03-06T13:06:28;2.83;;;2.37;;
50161;SDS011;36061;48.116;11.612;2024-03-06T13:08:56;4.07;;;2.00;;
50161;SDS011;36061;48.116;11.612;2024-03-06T13:11:25;2.63;;;2.27;;
50161;SDS011;36061;48.116;11.612;2024-03-06T13:13:52;4.27;;;2.73;;
50161;SDS011;36061;48.116;11.612;2024-03-06T13:16:19;2.30;;;2.10;;
50161;SDS011;36061;48.116;11.612;2024-03-06T13:18:47;2.20;;;2.00;;
50161;SDS011;36061;48.116;11.612;2024-03-06T13:21:18;2.40;;;2.07;;
50161;SDS011;36061;48.116;11.612;2024-03-06T13:23:45;3.07;;;2.50;;
50161;SDS011;36061;48.116;11.612;2024-03-06T13:26:12;4.07;;;2.43;;
50161;SDS011;36061;48.116;11.612;2024-03-06T13:28:41;2.50;;;1.80;;
50161;SDS011;36061;48.116;11.612;2024-03-06T13:31:09;2.47;;;1.83;;
50161;SDS011;36061;48.116;11.612;2024-03-06T13:33:36;5.00;;;2.40;;
50161;SDS011;36061;48.116;11.612;2024-03-06T13:36:03;4.27;;;2.40;;
50161;SDS011;36061;48.116;11.612;2024-03-06T13:38:32;4.50;;;2.87;;
50161;SDS011;36061;48.116;11.612;2024-03-06T13:40:59;2.20;;;2.00;;
50161;SDS011;36061;48.116;11.612;2024-03-06T13:43:27;2.93;;;2.00;;
50161;SDS011;36061;48.116;11.612;2024-03-06T13:45:56;3.63;;;2.10;;
50161;SDS011;36061;48.116;11.612;2024-03-06T13:48:23;2.33;;;2.07;;
50161;SDS011;36061;48.116;11.612;2024-03-06T13:50:51;2.50;;;2.10;;
50161;SDS011;36061;48.116;11.612;2024-03-06T13:53:18;2.83;;;1.73;;
50161;SDS011;36061;48.116;11.612;2024-03-06T13:55:45;2.30;;;2.00;;
50161;SDS011;36061;48.116;11.612;2024-03-06T13:58:13;5.97;;;3.87;;
50161;SDS011;36061;48.116;11.612;2024-03-06T14:00:40;2.80;;;2.27;;
50161;SDS011;36061;48.116;11.612;2024-03-06T14:03:09;2.93;;;2.10;;
50161;SDS011;36061;48.116;11.612;2024-03-06T14:05:38;3.73;;;2.03;;
50161;SDS011;36061;48.116;11.612;2024-03-06T14:08:06;4.13;;;2.73;;
50161;SDS011;36061;48.116;11.612;2024-03-06T14:10:37;6.93;;;4.20;;
50161;SDS011;36061;48.116;11.612;2024-03-06T14:13:05;4.77;;;2.17;;
50161;SDS011;36061;48.116;11.612;2024-03-06T14:15:34;4.67;;;3.07;;
50161;SDS011;36061;48.116;11.612;2024-03-06T14:18:01;2.53;;;2.03;;
50161;SDS011;36061;48.116;11.612;2024-03-06T14:20:31;4.43;;;1.93;;
50161;SDS011;36061;48.116;11.612;2024-03-06T14:22:58;3.07;;;1.90;;
50161;SDS011;36061;48.116;11.612;2024-03-06T14:25:25;2.07;;;1.70;;
50161;SDS011;36061;48.116;11.612;2024-03-06T14:27:53;1.87;;;1.53;;
50161;SDS011;36061;48.116;11.612;2024-03-06T14:30:20;2.30;;;1.77;;
50161;SDS011;36061;48.116;11.612;2024-03-06T14:32:48;3.23;;;2.03;;
50161;SDS011;36061;48.116;11.612;2024-03-06T14:35:15;5.13;;;2.33;;
50161;SDS011;36061;48.116;11.612;2024-03-06T14:37:44;2.47;;;1.90;;
50161;SDS011;36061;48.116;11.612;2024-03-06T14:40:14;5.80;;;2.10;;
50161;SDS011;36061;48.116;11.612;2024-03-06T14:42:42;2.13;;;1.60;;